Time;durP1;ratioP1;P1;durP2;ratioP2;P2;SDS_P1;SDS_P2;PMS_P1;PMS_P2;Temp;Humidity;BMP_temperature;BMP_pressure;BME280_temperature;BME280_humidity;BME280_pressure;Samples;Min_cycle;Max_cycle;Signal;HPM_P1;HPM_P2
2023/04/22 00:01:25;;;;;;;16.70;13.55;;;;;;;15.05;71.56;101104.09;4947916;28;20054;-81
2023/04/22 00:03:52;;;;;;;18.15;13.43;;;;;;;14.26;71.40;100985.38;4936748;28;20234;-80
2023/04/22 00:06:20;;;;;;;15.30;13.55;;;;;;;15.06;70.93;101110.28;4947403;28;20493;-81
2023/04/22 00:08:47;;;;;;;18.90;14.55;;;;;;;14.91;71.34;101091.28;4969462;28;20054;-81
2023/04/22 00:11:22;;;;;;;19.05;14.82;;;;;;;14.73;71.49;101072.53;4963928;28;20736;-80
2023/04/22 00:13:52;;;;;;;18.45;14.02;;;;;;;14.51;71.67;101039.06;4977768;28;20042;-80
2023/04/22 00:16:22;;;;;;;16.13;13.63;;;;;;;14.80;71.63;101094.16;4976823;28;20248;-80
2023/04/22 00:18:54;;;;;;;18.05;13.85;;;;;;;14.84;71.70;101100.91;4994742;28;20066;-80
2023/04/22 00:21:21;;;;;;;17.58;14.07;;;;;;;14.82;71.99;101108.22;5000704;28;20050;-80
2023/04/22 00:23:50;;;;;;;19.20;14.05;;;;;;;14.78;72.17;101098.81;4985897;28;20128;-79
2023/04/22 00:26:17;;;;;;;15.27;13.13;;;;;;;14.82;72.14;101098.34;4969125;28;20089;-80
2023/04/22 00:28:47;;;;;;;21.23;14.23;;;;;;;14.26;72.14;101014.75;4960993;28;20145;-80
2023/04/22 00:31:21;;;;;;;18.77;13.55;;;;;;;14.47;72.35;101035.03;4957956;28;20203;-81
2023/04/22 00:33:48;;;;;;;15.45;13.32;;;;;;;14.90;72.19;101110.97;4982725;28;20120;-81
2023/04/22 00:36:20;;;;;;;16.67;14.48;;;;;;;14.85;71.75;101107.91;4951889;28;20514;-78
2023/04/22 00:38:50;;;;;;;22.02;13.75;;;;;;;14.77;71.33;101099.81;4968050;28;20120;-79
2023/04/22 00:41:17;;;;;;;18.80;12.93;;;;;;;14.78;71.09;101096.97;4961012;28;20046;-80
2023/04/22 00:43:44;;;;;;;17.63;13.25;;;;;;;14.86;71.23;101112.28;4976789;28;20415;-80
2023/04/22 00:46:15;;;;;;;17.42;13.40;;;;;;;14.79;71.30;101105.84;4981293;28;20054;-80
2023/04/22 00:48:45;;;;;;;18.08;12.95;;;;;;;14.52;71.09;101056.78;4975426;28;20053;-82
2023/04/22 00:51:19;;;;;;;19.08;14.82;;;;;;;14.70;71.03;101094.22;4963710;28;20326;-79
2023/04/22 00:53:48;;;;;;;14.80;12.93;;;;;;;14.36;71.20;101044.06;4985143;28;20141;-79
2023/04/22 00:56:15;;;;;;;16.48;12.70;;;;;;;14.75;71.35;101113.31;4974353;28;20355;-81
2023/04/22 00:58:44;;;;;;;16.52;12.88;;;;;;;14.66;71.27;101104.41;4975851;28;20256;-81
2023/04/22 01:01:15;;;;;;;16.08;12.93;;;;;;;14.62;71.28;101102.16;4994723;28;20061;-81
2023/04/22 01:03:45;;;;;;;18.65;13.07;;;;;;;14.39;71.48;101064.31;4980613;28;20062;-81
2023/04/22 01:06:23;;;;;;;17.55;14.55;;;;;;;14.27;71.40;101051.19;4987316;28;20058;-80
2023/04/22 01:09:01;;;;;;;15.43;13.38;;;;;;;14.67;71.30;101114.09;4985558;28;20096;-80
2023/04/22 01:11:33;;;;;;;16.05;14.35;;;;;;;14.59;71.43;101103.31;4992423;28;20058;-80
2023/04/22 01:14:07;;;;;;;17.83;15.18;;;;;;;14.71;71.42;101117.31;4982729;28;20508;-81
2023/04/22 01:16:37;;;;;;;18.35;15.07;;;;;;;14.71;70.84;101115.47;4976333;28;20475;-82
2023/04/22 01:19:05;;;;;;;21.02;15.85;;;;;;;14.89;70.30;101130.69;4989324;28;20050;-81
2023/04/22 01:21:34;;;;;;;21.70;14.75;;;;;;;14.73;69.78;101092.13;5004460;28;20042;-81
2023/04/22 01:24:04;;;;;;;21.08;16.15;;;;;;;14.87;69.67;101111.28;4978052;28;20523;-81
2023/04/22 01:26:34;;;;;;;19.65;16.00;;;;;;;14.66;69.14;101080.34;4995050;28;20301;-80
2023/04/22 01:29:02;;;;;;;19.98;16.60;;;;;;;14.98;69.27;101111.06;4981992;28;20094;-81
2023/04/22 01:31:29;;;;;;;23.63;17.30;;;;;;;15.04;69.29;101134.50;4991814;28;20140;-80
2023/04/22 01:34:02;;;;;;;23.63;17.50;;;;;;;15.07;68.67;101128.88;5000639;28;20064;-80
2023/04/22 01:36:40;;;;;;;31.35;19.70;;;;;;;14.89;69.09;101088.75;4978433;28;20463;-80
2023/04/22 01:39:07;;;;;;;23.23;18.00;;;;;;;15.09;69.20;101123.34;4986091;28;20139;-81
2023/04/22 01:41:39;;;;;;;23.25;19.67;;;;;;;15.04;69.31;101117.63;4987441;28;20468;-81
2023/04/22 01:44:06;;;;;;;24.98;19.92;;;;;;;14.61;69.45;101047.91;4986933;28;20046;-81
2023/04/22 01:46:33;;;;;;;28.38;19.80;;;;;;;14.53;69.76;101045.97;4999255;28;20133;-81
2023/04/22 01:49:02;;;;;;;26.75;20.27;;;;;;;14.94;70.26;101107.84;5001773;28;20416;-80
2023/04/22 01:51:28;;;;;;;29.05;21.77;;;;;;;14.90;70.08;101116.31;4987782;28;20116;-82
2023/04/22 01:53:55;;;;;;;26.83;20.50;;;;;;;14.94;70.50;101123.88;4987193;28;20053;-81
2023/04/22 01:56:28;;;;;;;29.98;22.60;;;;;;;14.94;70.55;101125.72;4996685;28;20485;-81
2023/04/22 01:58:54;;;;;;;29.02;22.02;;;;;;;14.91;70.70;101113.50;5002119;28;20049;-79
2023/04/22 02:01:21;;;;;;;27.58;21.35;;;;;;;14.93;71.04;101121.38;5001451;28;20045;-81
2023/04/22 02:03:48;;;;;;;33.20;23.83;;;;;;;14.45;71.24;101037.00;4966716;28;20064;-80
2023/04/22 02:06:17;;;;;;;31.30;24.00;;;;;;;14.96;71.22;101118.38;4983133;28;20050;-82
2023/04/22 02:08:44;;;;;;;31.10;23.42;;;;;;;14.94;70.80;101104.31;4962622;28;20062;-82
2023/04/22 02:11:14;;;;;;;31.45;23.33;;;;;;;14.53;70.86;101039.75;4953046;28;20058;-81
2023/04/22 02:13:40;;;;;;;31.85;24.05;;;;;;;14.83;71.46;101093.84;4966360;28;20092;-81
2023/04/22 02:16:08;;;;;;;33.97;24.65;;;;;;;15.00;71.10;101110.88;4971386;28;20286;-81
2023/04/22 02:18:41;;;;;;;32.22;23.55;;;;;;;14.94;71.42;101099.81;4969588;28;20279;-81
2023/04/22 02:21:09;;;;;;;30.85;22.92;;;;;;;14.89;71.37;101111.97;4966187;28;20078;-81
2023/04/22 02:23:37;;;;;;;31.65;23.17;;;;;;;14.77;71.74;101100.66;4970129;28;20369;-82
2023/04/22 02:26:07;;;;;;;34.50;24.88;;;;;;;14.82;71.80;101113.56;4969094;28;20059;-80
2023/04/22 02:28:33;;;;;;;34.35;24.00;;;;;;;14.85;72.00;101126.63;4966532;28;20069;-82
2023/04/22 02:31:00;;;;;;;35.97;24.70;;;;;;;14.61;71.86;101085.31;4965945;28;20142;-80
2023/04/22 02:33:27;;;;;;;29.83;23.38;;;;;;;14.73;71.88;101110.81;4967825;28;20078;-82
2023/04/22 02:35:54;;;;;;;30.67;22.80;;;;;;;14.74;72.02;101111.66;4962964;28;20133;-82
2023/04/22 02:38:20;;;;;;;33.75;23.35;;;;;;;14.75;72.15;101116.81;4962163;28;20453;-81
2023/04/22 02:40:47;;;;;;;32.83;24.27;;;;;;;14.41;72.16;101062.31;4977406;28;20050;-82
2023/04/22 02:43:15;;;;;;;32.75;23.05;;;;;;;14.59;72.21;101087.28;4961055;28;20086;-80
2023/04/22 02:45:42;;;;;;;34.63;26.30;;;;;;;14.66;72.08;101095.50;4964492;28;20101;-82
2023/04/22 02:48:25;;;;;;;33.22;24.42;;;;;;;14.78;71.73;101122.88;4980477;28;20065;-80
2023/04/22 02:51:26;;;;;;;34.90;25.40;;;;;;;14.73;72.24;101116.16;4969221;28;20558;-81
2023/04/22 02:54:03;;;;;;;28.30;23.13;;;;;;;14.68;72.16;101097.03;4981446;28;20049;-81
2023/04/22 02:56:35;;;;;;;33.55;24.02;;;;;;;14.46;72.07;101058.22;4972578;28;20050;-80
2023/04/22 02:59:07;;;;;;;32.67;23.60;;;;;;;14.79;72.25;101124.56;4976790;28;20069;-81
2023/04/22 03:01:35;;;;;;;36.20;25.55;;;;;;;14.75;72.10;101119.50;4974030;28;20058;-82
2023/04/22 03:04:14;;;;;;;34.95;25.55;;;;;;;14.75;72.04;101116.81;4974598;28;20376;-82
2023/04/22 03:06:57;;;;;;;34.80;25.45;;;;;;;14.88;71.42;101124.50;4962873;28;20062;-81
2023/04/22 03:09:31;;;;;;;31.42;23.15;;;;;;;14.76;71.30;101104.31;4967692;28;20164;-81
2023/04/22 03:12:04;;;;;;;37.63;25.20;;;;;;;14.73;71.65;101110.81;4987618;28;20050;-80
2023/04/22 03:14:30;;;;;;;38.65;25.25;;;;;;;14.35;71.42;101031.72;4970954;28;20601;-81
2023/04/22 03:17:11;;;;;;;34.45;24.73;;;;;;;14.78;71.59;101106.81;4966845;28;20061;-81
2023/04/22 03:19:37;;;;;;;34.35;24.20;;;;;;;14.82;71.40;101109.06;4972113;28;20062;-80
2023/04/22 03:22:16;;;;;;;33.47;24.10;;;;;;;14.72;71.99;101111.78;4972667;28;20350;-80
2023/04/22 03:24:42;;;;;;;33.45;24.08;;;;;;;14.51;72.01;101089.81;4973582;28;20121;-81
2023/04/22 03:27:10;;;;;;;34.70;23.70;;;;;;;14.61;72.15;101106.69;4966121;28;20050;-80
2023/04/22 03:29:38;;;;;;;36.58;24.00;;;;;;;14.20;72.10;101050.09;4966455;28;20054;-82
2023/04/22 03:32:06;;;;;;;30.60;23.48;;;;;;;14.52;72.41;101099.53;4968221;28;20706;-81
2023/04/22 03:34:36;;;;;;;32.30;23.98;;;;;;;14.33;72.53;101085.28;4973187;28;20094;-80
2023/04/22 03:37:02;;;;;;;36.08;24.20;;;;;;;14.57;72.03;101117.81;4984004;28;20097;-80
2023/04/22 03:39:29;;;;;;;33.30;23.77;;;;;;;14.54;72.21;101110.94;4975311;28;20120;-81
2023/04/22 03:41:56;;;;;;;34.35;23.58;;;;;;;14.31;72.26;101068.56;4982813;28;20144;-81
2023/04/22 03:44:23;;;;;;;32.15;23.08;;;;;;;14.36;72.11;101081.47;4987091;28;20058;-79
2023/04/22 03:46:59;;;;;;;32.80;23.27;;;;;;;14.53;72.40;101119.91;4982242;28;20042;-80
2023/04/22 03:49:38;;;;;;;31.63;24.05;;;;;;;14.50;72.64;101113.03;4969398;28;20051;-81
2023/04/22 03:52:06;;;;;;;30.52;22.27;;;;;;;14.20;72.57;101059.91;4966847;28;20796;-82
2023/04/22 03:54:33;;;;;;;31.52;22.45;;;;;;;14.44;72.39;101115.44;4982755;28;20051;-81
2023/04/22 03:57:00;;;;;;;32.97;22.60;;;;;;;14.24;72.34;101075.50;4980753;28;20058;-82
2023/04/22 03:59:27;;;;;;;35.42;23.90;;;;;;;14.41;72.67;101121.94;4986724;28;20371;-81
2023/04/22 04:01:56;;;;;;;31.45;22.08;;;;;;;14.39;72.73;101117.72;4970334;28;20137;-81
2023/04/22 04:04:23;;;;;;;37.22;24.02;;;;;;;13.99;72.42;101057.50;4970564;28;20046;-81
2023/04/22 04:06:50;;;;;;;30.95;22.58;;;;;;;14.30;72.66;101114.97;4982138;28;20137;-80
2023/04/22 04:09:20;;;;;;;34.05;23.70;;;;;;;14.21;72.70;101105.16;4983086;28;20054;-81
2023/04/22 04:11:54;;;;;;;31.75;23.10;;;;;;;14.21;72.87;101121.19;4972297;28;20153;-80
2023/04/22 04:14:23;;;;;;;33.35;22.88;;;;;;;14.09;72.99;101090.31;4968119;28;20131;-80
2023/04/22 04:16:53;;;;;;;26.30;20.75;;;;;;;14.14;72.80;101109.41;4971425;28;20046;-81
2023/04/22 04:19:28;;;;;;;;;;;;;;;14.14;72.98;101113.91;4970076;28;20050;-81
2023/04/22 04:21:57;;;;;;;27.95;21.13;;;;;;;14.18;73.08;101110.81;4986196;28;19925;-80
2023/04/22 04:24:30;;;;;;;28.95;22.08;;;;;;;13.92;73.18;101059.06;4968572;28;20046;-82
2023/04/22 04:27:00;;;;;;;27.17;21.10;;;;;;;14.01;72.89;101085.72;4970436;28;20508;-80
2023/04/22 04:29:27;;;;;;;28.02;20.80;;;;;;;14.09;73.45;101099.16;4970793;28;20139;-80
2023/04/22 04:31:54;;;;;;;31.23;22.13;;;;;;;14.16;72.75;101112.78;4970672;28;20133;-80
2023/04/22 04:34:21;;;;;;;28.52;21.02;;;;;;;13.90;72.48;101070.72;4969113;28;20057;-81
2023/04/22 04:36:55;;;;;;;27.58;20.80;;;;;;;14.13;72.30;101105.06;4967277;28;20058;-80
2023/04/22 04:39:22;;;;;;;26.73;20.08;;;;;;;14.21;72.03;101113.19;4982730;28;20488;-80
2023/04/22 04:42:00;;;;;;;28.77;20.70;;;;;;;14.24;72.01;101120.88;4968802;28;20046;-80
2023/04/22 04:44:33;;;;;;;28.20;20.52;;;;;;;14.21;72.85;101117.69;4987932;28;20255;-81
2023/04/22 04:47:06;;;;;;;25.42;20.40;;;;;;;13.98;72.80;101082.50;5003534;28;20058;-78
2023/04/22 04:49:39;;;;;;;30.48;22.13;;;;;;;14.25;72.71;101124.41;4980411;28;20340;-81
2023/04/22 04:52:09;;;;;;;29.55;20.17;;;;;;;14.24;72.75;101125.38;4969483;28;20058;-83
2023/04/22 04:54:43;;;;;;;32.83;22.05;;;;;;;14.24;73.01;101123.56;4967406;28;20503;-81
2023/04/22 05:00:10;;;;;;;30.67;20.30;;;;;;;14.25;72.80;101135.94;4966891;28;20409;-80
2023/04/22 05:02:37;;;;;;;32.33;21.05;;;;;;;14.07;72.48;101100.31;4965117;28;20105;-80
2023/04/22 05:05:05;;;;;;;30.80;21.45;;;;;;;14.17;72.29;101108.28;4985508;28;20484;-81
2023/04/22 05:07:32;;;;;;;33.38;22.13;;;;;;;14.11;72.08;101107.03;4981070;28;20054;-82
2023/04/22 05:10:05;;;;;;;33.58;23.13;;;;;;;13.90;72.26;101065.38;4982316;28;20077;-82
2023/04/22 05:12:32;;;;;;;34.88;24.00;;;;;;;14.30;71.74;101125.66;4948347;28;20113;-81
2023/04/22 05:14:59;;;;;;;32.53;22.83;;;;;;;14.38;71.88;101138.25;4952665;28;20055;-80
2023/04/22 05:17:27;;;;;;;32.50;22.73;;;;;;;13.85;71.70;101056.97;4949003;28;20051;-81
2023/04/22 05:19:54;;;;;;;35.63;23.77;;;;;;;14.42;71.28;101122.78;4947964;28;20062;-82
2023/04/22 05:22:21;;;;;;;31.88;22.38;;;;;;;14.56;71.05;101137.50;4972455;28;20132;-80
2023/04/22 05:24:48;;;;;;;31.58;22.02;;;;;;;13.72;70.83;101003.13;4968075;28;20172;-81
2023/04/22 05:27:14;;;;;;;35.88;23.65;;;;;;;14.66;70.35;101143.63;4989822;28;20050;-81
2023/04/22 05:29:41;;;;;;;31.00;22.35;;;;;;;14.73;70.05;101148.22;4974299;28;20056;-82
2023/04/22 05:32:19;;;;;;;32.92;22.98;;;;;;;14.29;69.75;101075.88;4967153;28;20682;-80
2023/04/22 05:34:46;;;;;;;32.22;22.15;;;;;;;14.79;69.63;101156.63;4963030;28;20042;-81
2023/04/22 05:37:13;;;;;;;36.35;23.13;;;;;;;14.85;69.55;101158.69;4967354;28;20050;-82
2023/04/22 05:39:40;;;;;;;36.90;23.02;;;;;;;14.65;69.27;101124.06;4970156;28;20072;-82
2023/04/22 05:42:07;;;;;;;36.22;23.67;;;;;;;14.68;69.43;101133.63;4968213;28;20082;-82
2023/04/22 05:44:39;;;;;;;31.58;21.95;;;;;;;14.86;70.00;101153.22;4976335;28;20129;-83
2023/04/22 05:47:06;;;;;;;32.75;23.40;;;;;;;14.86;69.55;101160.38;4966177;28;20046;-81
2023/04/22 05:49:34;;;;;;;32.55;22.00;;;;;;;14.91;69.54;101160.78;4963174;28;20228;-81
2023/04/22 05:52:02;;;;;;;30.38;22.05;;;;;;;14.98;68.97;101169.00;4961202;28;20069;-83
2023/04/22 05:54:35;;;;;;;31.20;22.88;;;;;;;14.38;69.07;101065.31;4965991;28;20386;-84
2023/04/22 05:57:02;;;;;;;35.95;23.20;;;;;;;15.17;68.68;101171.56;4979607;28;20140;-81
2023/04/22 05:59:29;;;;;;;30.40;22.33;;;;;;;15.21;67.82;101167.59;4964539;28;20043;-84
2023/04/22 06:02:03;;;;;;;37.17;23.48;;;;;;;15.03;67.58;101138.19;4970073;28;20250;-83
2023/04/22 06:04:32;;;;;;;33.05;23.00;;;;;;;15.11;67.52;101138.25;4972091;28;20047;-82
2023/04/22 06:07:04;;;;;;;33.10;23.80;;;;;;;15.45;66.51;101169.63;4978772;28;20046;-83
2023/04/22 06:09:34;;;;;;;33.97;23.13;;;;;;;15.45;66.67;101179.50;4965320;28;20046;-82
2023/04/22 06:12:01;;;;;;;36.35;23.75;;;;;;;15.35;67.14;101174.22;4984462;28;20057;-83
2023/04/22 06:14:27;;;;;;;34.40;25.10;;;;;;;15.33;67.09;101157.50;4980322;28;20058;-83
2023/04/22 06:16:54;;;;;;;32.03;23.35;;;;;;;15.55;66.95;101194.47;4984539;28;20053;-82
2023/04/22 06:19:23;;;;;;;37.95;25.00;;;;;;;15.52;66.79;101177.91;4966202;28;20046;-81
2023/04/22 06:21:55;;;;;;;37.05;25.40;;;;;;;15.67;65.87;101178.19;4982163;28;20051;-83
2023/04/22 06:24:27;;;;;;;31.77;22.83;;;;;;;15.80;65.68;101189.34;4983954;28;20419;-82
2023/04/22 06:27:01;;;;;;;37.05;23.67;;;;;;;15.68;65.82;101182.50;4963518;28;20052;-84
2023/04/22 06:29:30;;;;;;;36.38;24.08;;;;;;;15.60;65.79;101168.06;4967744;28;20046;-82
2023/04/22 06:31:56;;;;;;;35.53;23.65;;;;;;;15.77;65.49;101197.69;4963680;28;20042;-82
2023/04/22 06:34:30;;;;;;;29.75;23.10;;;;;;;15.75;65.73;101200.53;4977818;28;20563;-81
2023/04/22 06:37:01;;;;;;;32.50;23.13;;;;;;;15.70;65.92;101188.59;4969548;28;20375;-81
2023/04/22 06:39:32;;;;;;;36.83;23.88;;;;;;;15.35;65.68;101128.75;4982247;28;20444;-83
2023/04/22 06:42:03;;;;;;;32.88;22.70;;;;;;;15.80;65.96;101200.03;4967393;28;20054;-84
2023/04/22 06:44:31;;;;;;;37.05;23.45;;;;;;;15.45;66.33;101152.75;4968029;28;20050;-83
2023/04/22 06:46:59;;;;;;;33.20;24.77;;;;;;;15.32;65.55;101116.53;4967540;28;20053;-83
2023/04/22 06:49:27;;;;;;;32.90;23.23;;;;;;;15.99;64.78;101215.06;4982200;28;20265;-82
2023/04/22 06:51:54;;;;;;;33.00;24.60;;;;;;;15.96;65.68;101210.88;4969697;28;20047;-82
2023/04/22 06:54:21;;;;;;;29.95;22.90;;;;;;;15.84;65.46;101185.34;4973184;28;20057;-82
2023/04/22 06:56:48;;;;;;;32.80;22.67;;;;;;;16.02;65.30;101210.25;4971448;28;20054;-83
2023/04/22 06:59:15;;;;;;;31.80;23.23;;;;;;;16.06;65.13;101212.63;5002911;28;20446;-83
2023/04/22 07:01:42;;;;;;;39.17;24.42;;;;;;;16.17;64.62;101217.72;5011078;28;20284;-80
2023/04/22 07:04:08;;;;;;;34.88;23.85;;;;;;;15.95;64.60;101174.41;4990005;28;20151;-82
2023/04/22 07:06:36;;;;;;;35.05;23.35;;;;;;;15.36;64.86;101080.47;4963116;28;20420;-82
2023/04/22 07:09:06;;;;;;;38.08;25.33;;;;;;;16.23;65.01;101207.19;4986819;28;20066;-81
2023/04/22 07:11:33;;;;;;;39.85;25.40;;;;;;;16.15;64.34;101177.69;4966982;28;20202;-83
2023/04/22 07:14:07;;;;;;;41.63;28.67;;;;;;;16.16;64.43;101167.81;4966831;28;20060;-82
2023/04/22 07:16:37;;;;;;;46.17;29.73;;;;;;;16.36;63.69;101182.66;4970991;28;20144;-81
2023/04/22 07:19:07;;;;;;;46.88;29.13;;;;;;;16.44;64.20;101182.69;4965723;28;20046;-83
2023/04/22 07:21:36;;;;;;;;;;;;;;;16.59;63.79;101211.56;4967628;28;20134;-79
2023/04/22 07:24:03;;;;;;;39.75;26.05;;;;;;;16.73;63.16;101199.41;4973840;28;19933;-80
2023/04/22 07:26:33;;;;;;;42.90;29.08;;;;;;;16.72;63.33;101195.84;4971892;28;20449;-81
2023/04/22 07:29:20;;;;;;;43.80;28.48;;;;;;;16.63;63.31;101180.78;4969615;28;20142;-82
2023/04/22 07:31:49;;;;;;;39.38;26.23;;;;;;;16.69;63.34;101198.88;4971353;28;20064;-82
2023/04/22 07:34:17;;;;;;;39.80;27.33;;;;;;;16.78;63.01;101191.72;4969480;28;20125;-82
2023/04/22 07:36:44;;;;;;;38.95;27.27;;;;;;;16.68;62.70;101178.44;4986804;28;20061;-82
2023/04/22 07:39:14;;;;;;;39.42;26.83;;;;;;;16.72;62.93;101195.84;4970441;28;20050;-81
2023/04/22 07:41:42;;;;;;;46.45;29.02;;;;;;;16.51;63.04;101155.25;4963482;28;20443;-82
2023/04/22 07:44:17;;;;;;;39.88;26.02;;;;;;;16.49;63.44;101151.91;4971748;28;20046;-81
2023/04/22 07:47:00;;;;;;;37.03;25.80;;;;;;;16.65;63.04;101168.03;4962844;28;20238;-79
2023/04/22 07:49:27;;;;;;;35.55;25.15;;;;;;;16.80;63.04;101187.91;4969106;28;20050;-80
2023/04/22 07:51:56;;;;;;;40.72;26.52;;;;;;;16.82;62.57;101177.84;4980734;28;20136;-80
2023/04/22 07:54:23;;;;;;;33.15;24.27;;;;;;;16.81;62.75;101183.38;4965545;28;20081;-79
2023/04/22 07:56:50;;;;;;;40.22;27.35;;;;;;;16.87;63.28;101178.19;4964038;28;20353;-81
2023/04/22 07:59:16;;;;;;;36.70;26.70;;;;;;;16.85;62.26;101145.34;4980730;28;20050;-79
2023/04/22 08:01:45;;;;;;;37.70;26.45;;;;;;;16.87;62.14;101139.81;4968494;28;20074;-79
2023/04/22 08:04:12;;;;;;;37.08;27.27;;;;;;;16.95;62.23;101155.91;4972468;28;20094;-80
2023/04/22 08:06:43;;;;;;;40.03;27.10;;;;;;;16.86;62.14;101147.00;4970196;28;20053;-80
2023/04/22 08:09:09;;;;;;;44.08;29.52;;;;;;;17.09;62.59;101173.22;4990325;28;20050;-80
2023/04/22 08:11:54;;;;;;;41.25;27.88;;;;;;;17.12;62.76;101180.09;4982667;28;20378;-81
2023/04/22 08:14:29;;;;;;;39.70;27.80;;;;;;;17.22;62.66;101180.78;4973047;28;20117;-80
2023/04/22 08:16:56;;;;;;;38.67;26.13;;;;;;;17.32;62.46;101178.75;4972386;28;20100;-79
2023/04/22 08:19:22;;;;;;;40.90;28.98;;;;;;;17.33;62.60;101156.31;4972392;28;20410;-80
2023/04/22 08:21:50;;;;;;;41.38;28.25;;;;;;;17.41;62.43;101180.47;4982619;28;20168;-79
2023/04/22 08:24:20;;;;;;;38.97;26.10;;;;;;;17.56;61.19;101169.06;4958521;28;20050;-82
2023/04/22 08:26:47;;;;;;;40.20;27.45;;;;;;;17.65;61.16;101176.09;4989724;28;20038;-81
2023/04/22 08:29:27;;;;;;;45.42;29.17;;;;;;;17.34;61.09;101136.50;4968836;28;20046;-78
2023/04/22 08:31:59;;;;;;;41.42;27.98;;;;;;;17.31;61.20;101126.13;4968415;28;20408;-80
2023/04/22 08:34:27;;;;;;;44.83;28.92;;;;;;;17.70;61.14;101179.94;4985505;28;20223;-81
2023/04/22 08:36:54;;;;;;;44.78;28.13;;;;;;;17.71;60.76;101180.78;4976546;28;20053;-79
2023/04/22 08:39:21;;;;;;;42.95;29.75;;;;;;;17.81;60.33;101168.03;4982399;28;20137;-79
2023/04/22 08:41:55;;;;;;;42.22;29.80;;;;;;;17.79;61.21;101178.09;4969204;28;20050;-81
2023/04/22 08:44:23;;;;;;;41.47;28.75;;;;;;;17.87;61.13;101170.06;4967322;28;20053;-81
2023/04/22 08:46:50;;;;;;;40.95;28.48;;;;;;;17.84;60.74;101158.81;4982376;28;20138;-80
2023/04/22 08:49:18;;;;;;;39.78;28.15;;;;;;;17.72;60.54;101134.97;4971678;28;20038;-81
2023/04/22 08:51:45;;;;;;;46.38;28.75;;;;;;;18.22;59.75;101177.88;4968441;28;20086;-81
2023/04/22 08:54:11;;;;;;;38.97;28.15;;;;;;;18.04;59.55;101154.75;4970246;28;20293;-81
2023/04/22 08:56:43;;;;;;;41.22;28.30;;;;;;;18.38;58.94;101180.50;4981394;28;20054;-82
2023/04/22 08:59:11;;;;;;;40.78;28.67;;;;;;;18.34;58.79;101176.47;4973912;28;20061;-83
2023/04/22 09:01:42;;;;;;;47.63;29.70;;;;;;;18.40;58.84;101175.81;4965824;28;20420;-80
2023/04/22 09:04:10;;;;;;;45.57;30.07;;;;;;;18.41;59.26;101182.00;4980995;28;20066;-83
2023/04/22 09:06:39;;;;;;;41.25;27.98;;;;;;;18.43;58.91;101164.69;4963568;28;20332;-83
2023/04/22 09:09:18;;;;;;;41.67;30.10;;;;;;;18.33;59.06;101170.28;4985273;28;20077;-85
2023/04/22 09:11:45;;;;;;;38.13;27.98;;;;;;;18.43;59.02;101159.31;4973331;28;20412;-81
2023/04/22 09:14:17;;;;;;;44.05;31.13;;;;;;;18.54;59.39;101169.69;4974486;28;20399;-82
2023/04/22 09:16:48;;;;;;;44.25;29.77;;;;;;;18.53;59.70;101170.69;4964866;28;20066;-84
2023/04/22 09:19:24;;;;;;;39.00;28.07;;;;;;;18.29;59.44;101114.34;4956434;28;20136;-84
2023/04/22 09:21:57;;;;;;;42.70;29.85;;;;;;;18.75;59.47;101170.94;4992614;28;20309;-84
2023/04/22 09:24:31;;;;;;;40.28;30.13;;;;;;;18.70;58.78;101155.31;4973289;28;20352;-84
2023/04/22 09:27:02;;;;;;;36.65;28.13;;;;;;;19.02;58.83;101168.78;4983590;28;20049;-83
2023/04/22 09:29:30;;;;;;;46.83;31.67;;;;;;;18.99;58.02;101141.22;4987129;28;20510;-83
2023/04/22 09:32:08;;;;;;;43.40;30.27;;;;;;;18.86;57.49;101079.13;4991895;28;20053;-84
2023/04/22 09:34:48;;;;;;;37.03;26.33;;;;;;;18.37;56.32;100993.34;4972347;28;20308;-82
2023/04/22 09:37:24;;;;;;;35.05;26.63;;;;;;;19.52;55.88;101172.81;4976503;28;20688;-82
2023/04/22 09:40:03;;;;;;;35.50;26.25;;;;;;;19.35;56.30;101119.09;4972214;28;20065;-82
2023/04/22 09:42:29;;;;;;;38.45;28.02;;;;;;;19.33;56.22;101102.28;4974402;28;20194;-83
2023/04/22 09:45:03;;;;;;;37.67;28.75;;;;;;;19.72;56.18;101138.97;4977511;28;20053;-81
2023/04/22 09:47:35;;;;;;;42.55;27.48;;;;;;;19.65;56.66;101105.69;4985890;28;20054;-81
2023/04/22 09:50:04;;;;;;;43.78;27.98;;;;;;;19.80;56.28;101098.47;4968053;28;20361;-82
2023/04/22 09:52:32;;;;;;;32.08;25.40;;;;;;;20.25;55.24;101147.81;4970564;28;20301;-83
2023/04/22 09:55:08;;;;;;;35.63;23.83;;;;;;;19.87;53.59;101060.03;4978826;28;20057;-83
2023/04/22 09:57:45;;;;;;;33.80;25.02;;;;;;;20.51;52.57;101114.16;4968736;28;20054;-79
2023/04/22 10:00:23;;;;;;;30.58;21.95;;;;;;;20.65;52.91;101121.38;4981557;28;20046;-82
2023/04/22 10:02:55;;;;;;;34.25;22.98;;;;;;;20.77;52.53;101131.69;4967779;28;20116;-84
2023/04/22 10:05:24;;;;;;;28.42;22.58;;;;;;;20.49;52.12;101083.84;4976911;28;20074;-81
2023/04/22 10:07:56;;;;;;;35.35;23.83;;;;;;;20.48;52.05;101093.75;4980092;28;20361;-80
2023/04/22 10:10:23;;;;;;;35.95;26.55;;;;;;;20.21;52.40;101045.94;4985104;28;20299;-82
2023/04/22 10:12:52;;;;;;;34.58;24.20;;;;;;;20.84;53.35;101121.78;4997160;28;20483;-82
2023/04/22 10:15:23;;;;;;;;;;;;;;;20.90;51.88;101123.75;4979194;28;20463;-83
2023/04/22 10:17:54;;;;;;;35.38;24.33;;;;;;;20.95;52.61;101118.59;4992907;28;19922;-85
2023/04/22 10:20:23;;;;;;;35.50;25.67;;;;;;;21.11;52.38;101112.94;4986912;28;20053;-83
2023/04/22 10:22:53;;;;;;;31.10;24.50;;;;;;;21.21;51.74;101084.78;4977292;28;20062;-81
2023/04/22 10:25:24;;;;;;;33.03;23.73;;;;;;;21.53;51.30;101086.94;4977746;28;20120;-84
2023/04/22 10:28:09;;;;;;;32.30;22.67;;;;;;;21.49;50.82;101072.16;4972289;28;20078;-82
2023/04/22 10:30:39;;;;;;;30.73;22.23;;;;;;;21.94;50.89;101110.50;4978048;28;20058;-82
2023/04/22 10:33:33;;;;;;;29.85;23.65;;;;;;;21.97;49.76;101082.22;4973667;28;20464;-82
2023/04/22 10:36:13;;;;;;;33.95;23.85;;;;;;;22.27;49.77;101095.50;4971802;28;20205;-83
2023/04/22 10:39:06;;;;;;;30.10;22.55;;;;;;;21.68;49.58;100970.66;4978049;28;20500;-84
2023/04/22 10:41:36;;;;;;;32.75;23.52;;;;;;;21.57;49.44;100944.19;4976348;28;20054;-81
2023/04/22 10:44:07;;;;;;;33.65;23.70;;;;;;;22.50;49.14;101100.56;4990563;28;20046;-81
2023/04/22 10:46:54;;;;;;;27.65;21.92;;;;;;;22.48;49.06;101081.03;4967947;28;20481;-82
2023/04/22 10:49:23;;;;;;;23.83;20.13;;;;;;;22.57;48.59;101060.84;4967921;28;20365;-81
2023/04/22 10:51:53;;;;;;;25.98;21.88;;;;;;;22.53;47.54;101017.13;4976789;28;20073;-82
2023/04/22 10:54:30;;;;;;;26.52;21.17;;;;;;;23.01;46.73;101091.97;4978116;28;20058;-82
2023/04/22 10:57:07;;;;;;;24.50;19.90;;;;;;;22.92;46.06;101060.72;4988132;28;20062;-80
2023/04/22 10:59:53;;;;;;;24.98;19.65;;;;;;;22.94;45.24;101064.06;4979617;28;20111;-83
2023/04/22 11:02:21;;;;;;;23.73;19.38;;;;;;;23.15;46.98;101077.41;4987959;28;20050;-82
2023/04/22 11:04:50;;;;;;;27.52;19.52;;;;;;;22.90;46.51;101014.88;4974226;28;20043;-82
2023/04/22 11:07:30;;;;;;;25.92;19.27;;;;;;;23.39;46.24;101077.81;4975794;28;20050;-82
2023/04/22 11:10:06;;;;;;;26.45;21.17;;;;;;;23.55;46.42;101076.56;4979693;28;20050;-81
2023/04/22 11:12:38;;;;;;;29.52;21.63;;;;;;;23.53;46.68;101076.75;4983234;28;20512;-84
2023/04/22 11:15:15;;;;;;;29.00;21.88;;;;;;;23.61;46.19;101065.69;4983089;28;20057;-81
2023/04/22 11:17:44;;;;;;;29.38;22.02;;;;;;;22.93;46.46;100946.78;4994468;28;20393;-82
2023/04/22 11:20:12;;;;;;;26.60;21.27;;;;;;;23.91;45.69;101070.69;4987080;28;20299;-81
2023/04/22 11:22:55;;;;;;;28.02;21.60;;;;;;;23.96;45.16;101059.16;4985073;28;20058;-81
2023/04/22 11:25:24;;;;;;;29.52;23.35;;;;;;;23.84;45.23;101031.91;4981955;28;20279;-83
2023/04/22 11:27:55;;;;;;;30.10;21.85;;;;;;;24.12;45.15;101036.19;4987827;28;20053;-82